Pagrindinis puslapis
METAR-TAF:

METAR-TAF

Oro uostai :

Niamėjus, Nigeris

platuma: 13-29N, ilguma: 002-10E, Aukštis: 223 m

Dabartinis oras

Ataskaita buvo paskelbta 55 minutes, ne 04:00 UTC
Vėjas 6 kt iš Rytų/Šiaurės Rytų
Temperatūra 24°C
Drėgmė 14%
Slėgis 1011 hPa
Matomumas: 4000 m
dulkės

METAR: DRRN 220400Z 06006KT 4000 DU NSC 24/M05 Q1011 NOSIG

Laikas: 05:55 (04:55 UTC)

Prognozė

Ataskaita buvo paskelbta 5 valandos ir 55 minutes, ne 23:00 UTC
Prognozė galioja nuo 22 metu 00 UTC su 23 metu 06 UTC
Vėjas 8 kt iš Šiaurės Rytų
Matomumas: 4000 m
dulkės
Laikinai
nuo 22 metu 08 UTC su 22 metu 12 UTC
Vėjas 18 kt iš Rytų
Matomumas: 2500 m
Dulkes pustymas
Tapsmas
tarp 22 ir 20 UTC
Matomumas: 6000 m

TAF: DRRN 212300Z 2200/2306 04008KT 4000 DU NSC TEMPO 2208/2212 08018KT 2500 BLDU BECMG 2220 2222 6000 NSW

Orai ataskaitas ir orų prognozės (METAR, TAF).

turimą stotys yra geltonos ir raudonos taškus žemėlapyje.

Perkelti pele per norėdami pamatyti stoties vardą.

Tada spustelėkite, norėdami matyti oro stebėjimo ir prognozės.

Norėdami pakeisti žemėlapį: spustelėkite ant žalios mygtukų su juodo kryžiaus žemyn,; žalią mygtuką su brūkšneliu, jei norite nutolinti; arba žalių rodyklių gretimoms žemėlapius.


METAR-TAF: